Juergen K — PBKV — position and weather

sailwx.info

Track history (hours):
 
Tides and Currents Weather Stations Pressure Air Temp Water Temp Dewpoint Dewpoint Depression Visibility Wind Speed Wind Dir Waves Ship Positions

Juergen K

Last reported at 2014-Nov-25 16:32 UTC. Time now 2014-Nov-27 14:21 UTC.
Position N 39°50' E 008°14'.

Length 89 m; draft 5.6 m.

Type: Cargo ship. MMSI: 244329000.

Date/timePositionNaut miles runAvg speedWind from/ knotsBaromVisibWave heightAir tempDewpointWater temp
2014-Nov-25 16:32N 39°50' E 008°14'207 9.7
2014-Nov-24 19:07N 42°38' E 005°34'45 7.9
2014-Nov-24 13:29N 43°15' E 005°00'9 9.6
2014-Nov-24 12:33N 43°23' E 004°56'4 3.8
2014-Nov-24 11:30N 43°24' E 004°51'0 0.0
2014-Nov-24 10:30N 43°24' E 004°51'0 0.0
2014-Nov-24 09:24N 43°24' E 004°51'0 0.0
2014-Nov-24 08:33N 43°24' E 004°51'0 0.0
2014-Nov-24 07:30N 43°24' E 004°51'0 0.0
2014-Nov-24 06:33N 43°24' E 004°51'0 0.0
2014-Nov-24 05:33N 43°24' E 004°51'0 0.0
2014-Nov-24 04:33N 43°24' E 004°51'0 0.0
2014-Nov-24 03:33N 43°24' E 004°51'0 0.0
2014-Nov-24 02:33N 43°24' E 004°51'0 0.0
2014-Nov-24 01:30N 43°24' E 004°51'0 0.0
2014-Nov-24 00:33N 43°24' E 004°51'0 0.0
2014-Nov-23 23:30N 43°24' E 004°51'0 0.0
2014-Nov-23 22:33N 43°24' E 004°51'0 0.0
2014-Nov-23 21:33N 43°24' E 004°51'0 0.0
2014-Nov-23 20:30N 43°24' E 004°51'0 0.0
2014-Nov-23 19:30N 43°24' E 004°51'0 0.0
2014-Nov-23 18:33N 43°24' E 004°51'0 0.0
2014-Nov-23 17:33N 43°24' E 004°51'0 0.0
2014-Nov-23 16:33N 43°24' E 004°51'0 0.0
2014-Nov-23 15:33N 43°24' E 004°51'0 0.0
2014-Nov-23 14:33N 43°24' E 004°51'0 0.0
2014-Nov-23 13:33N 43°24' E 004°51'0 0.0
2014-Nov-23 12:33N 43°24' E 004°51'0 0.0
2014-Nov-23 11:33N 43°24' E 004°51'0 0.0
2014-Nov-23 10:33N 43°24' E 004°51'0 0.0
2014-Nov-23 09:33N 43°24' E 004°51'0 0.0
2014-Nov-23 08:33N 43°24' E 004°51'0 0.0
2014-Nov-23 07:33N 43°24' E 004°51'0 0.0
2014-Nov-23 06:30N 43°24' E 004°51'0 0.0
2014-Nov-23 05:33N 43°24' E 004°51'0 0.0
2014-Nov-23 04:33N 43°24' E 004°51'0 0.0
2014-Nov-23 03:33N 43°24' E 004°51'0 0.0
2014-Nov-23 02:33N 43°24' E 004°51'0 0.0
2014-Nov-23 01:33N 43°24' E 004°51'0 0.0
2014-Nov-23 00:33N 43°24' E 004°51'0 0.0
2014-Nov-22 23:30N 43°24' E 004°51'0 0.0
2014-Nov-22 22:33N 43°24' E 004°51'0 0.0
2014-Nov-22 21:30N 43°24' E 004°51'0 0.0
2014-Nov-22 20:27N 43°24' E 004°51'0 0.0
2014-Nov-22 19:27N 43°24' E 004°51'0 0.0
2014-Nov-22 18:33N 43°24' E 004°51'0 0.0
2014-Nov-22 17:24N 43°24' E 004°51'0 0.0
2014-Nov-22 16:33N 43°24' E 004°51'0 0.0
2014-Nov-22 15:33N 43°24' E 004°51'0 0.3
2014-Nov-22 14:33N 43°24' E 004°51'9 9.2
2014-Nov-22 13:34N 43°18' E 005°01'1110.7
2014-Nov-22 12:33N 43°19' E 005°16'4 3.5
2014-Nov-22 11:24N 43°20' E 005°21'0 0.0
2014-Nov-22 10:30N 43°20' E 005°21'0 0.0
2014-Nov-22 09:30N 43°20' E 005°21'0 0.0
2014-Nov-22 08:33N 43°20' E 005°21'0 0.0
2014-Nov-22 07:33N 43°20' E 005°21'0 0.0
2014-Nov-22 06:30N 43°20' E 005°21'0 0.0
2014-Nov-22 05:30N 43°20' E 005°21'0 0.0
2014-Nov-22 04:30N 43°20' E 005°21'0 0.0
2014-Nov-22 03:24N 43°20' E 005°21'0 0.0
2014-Nov-22 02:33N 43°20' E 005°21'0 0.0
2014-Nov-22 01:30N 43°20' E 005°21'0 0.0
2014-Nov-22 00:30N 43°20' E 005°21'0 0.0
2014-Nov-21 23:30N 43°20' E 005°21'0 0.0
2014-Nov-21 22:24N 43°20' E 005°21'0 0.0
2014-Nov-21 21:33N 43°20' E 005°21'0 0.0
2014-Nov-21 20:24N 43°20' E 005°21'0 0.0
2014-Nov-21 19:27N 43°20' E 005°21'0 0.0
2014-Nov-21 18:33N 43°20' E 005°21'0 0.0
2014-Nov-21 17:33N 43°20' E 005°21'0 0.0
2014-Nov-21 16:30N 43°20' E 005°21'0 0.0
2014-Nov-21 15:33N 43°20' E 005°21'0 0.0
2014-Nov-21 14:33N 43°20' E 005°21'0 0.0
2014-Nov-21 13:21N 43°20' E 005°21'0 0.0
2014-Nov-21 12:30N 43°20' E 005°21'0 0.0
2014-Nov-21 11:30N 43°20' E 005°21'0 0.0
2014-Nov-21 10:33N 43°20' E 005°21'0 0.0
2014-Nov-21 09:30N 43°20' E 005°21'0 0.0
2014-Nov-21 08:33N 43°20' E 005°21'0 0.0
2014-Nov-21 07:30N 43°20' E 005°21'0 0.0
2014-Nov-21 06:30N 43°20' E 005°21'0 0.0
2014-Nov-21 05:27N 43°20' E 005°21'0 0.0
2014-Nov-21 04:18N 43°20' E 005°21'0 0.0
2014-Nov-21 03:30N 43°20' E 005°21'0 0.0
2014-Nov-21 02:33N 43°20' E 005°21'0 0.0
2014-Nov-21 01:30N 43°20' E 005°21'0 0.0
2014-Nov-21 00:30N 43°20' E 005°21'0 0.0
2014-Nov-20 23:33N 43°20' E 005°21'0 0.0
2014-Nov-20 22:21N 43°20' E 005°21'0 0.0
2014-Nov-20 21:33N 43°20' E 005°21'0 0.0
2014-Nov-20 20:33N 43°20' E 005°21'0 0.0
2014-Nov-20 19:33N 43°20' E 005°21'0 0.0
2014-Nov-20 18:30N 43°20' E 005°21'0 0.0
2014-Nov-20 17:33N 43°20' E 005°21'0 0.0
2014-Nov-20 16:30N 43°20' E 005°21'0 0.0
2014-Nov-20 15:33N 43°20' E 005°21'0 0.0
2014-Nov-20 14:30N 43°20' E 005°21'0 0.0
2014-Nov-20 13:33N 43°20' E 005°21'0 0.0
2014-Nov-20 12:27N 43°20' E 005°21'0 0.0
2014-Nov-20 11:30N 43°20' E 005°21'0 0.0
2014-Nov-20 10:30N 43°20' E 005°21'0 0.0
2014-Nov-20 09:33N 43°20' E 005°21'0 0.0
2014-Nov-20 08:27N 43°20' E 005°21'0 0.0
2014-Nov-20 07:30N 43°20' E 005°21'0 0.0
2014-Nov-20 06:27N 43°20' E 005°21'0 0.0
2014-Nov-20 05:33N 43°20' E 005°21'0 0.0
2014-Nov-20 04:27N 43°20' E 005°21'0 0.0
2014-Nov-20 03:30N 43°20' E 005°21'0 0.0
2014-Nov-20 02:27N 43°20' E 005°21'0 0.0
2014-Nov-20 01:33N 43°20' E 005°21'3 2.8
2014-Nov-20 00:33N 43°20' E 005°17'9 8.8
2014-Nov-19 23:33N 43°13' E 005°10'9 9.4
2014-Nov-19 22:33N 43°09' E 004°59'11 9.5
2014-Nov-19 21:27N 43°07' E 004°45'22 9.5
2014-Nov-19 19:06N 43°04' E 004°14'1810.6
2014-Nov-19 17:24N 43°01' E 003°50'7 7.9
2014-Nov-19 16:31N 43°00' E 003°40'10 9.5
2014-Nov-19 15:26N 43°00' E 003°26'12 9.5
2014-Nov-19 14:08N 43°00' E 003°09'4 7.4
2014-Nov-19 13:33N 43°01' E 003°04'0 0.0
2014-Nov-18 21:10N 43°01' E 003°03'0 0.0
2014-Nov-18 18:15N 43°01' E 003°03'0 0.0
2014-Nov-18 17:24N 43°01' E 003°03'0 0.0
2014-Nov-18 16:30N 43°01' E 003°03'2 0.7
2014-Nov-18 13:30N 43°01' E 003°06'2 0.3
2014-Nov-18 07:13N 43°01' E 003°09'50 8.7
2014-Nov-18 01:24N 43°05' E 004°17'1210.3
2014-Nov-18 00:16N 43°06' E 004°33'18 9.7
2014-Nov-17 22:25N 43°08' E 004°58'8 9.7
2014-Nov-17 21:33N 43°11' E 005°08'10 9.6
2014-Nov-17 20:33N 43°19' E 005°15'4 4.4
2014-Nov-17 19:33N 43°20' E 005°21'0 0.0
2014-Nov-17 18:33N 43°20' E 005°21'0 0.0
2014-Nov-17 17:33N 43°20' E 005°21'0 0.0
2014-Nov-17 16:33N 43°20' E 005°21'0 0.0
2014-Nov-17 15:30N 43°20' E 005°21'0 0.0
2014-Nov-17 14:33N 43°20' E 005°21'0 0.0
2014-Nov-17 13:33N 43°20' E 005°21'0 0.0
2014-Nov-17 12:33N 43°20' E 005°21'0 0.0
2014-Nov-17 11:33N 43°20' E 005°21'0 0.0
2014-Nov-17 10:33N 43°20' E 005°21'0 0.0
2014-Nov-17 09:33N 43°20' E 005°21'0 0.0
2014-Nov-17 08:33N 43°20' E 005°21'0 0.0
2014-Nov-17 07:33N 43°20' E 005°21'0 0.0
2014-Nov-17 06:33N 43°20' E 005°21'0 0.0
2014-Nov-17 05:33N 43°20' E 005°21'0 0.0
2014-Nov-17 04:33N 43°20' E 005°21'0 0.0
2014-Nov-17 03:33N 43°20' E 005°21'0 0.0
2014-Nov-17 02:33N 43°20' E 005°21'0 0.0
2014-Nov-17 01:33N 43°20' E 005°21'0 0.0
2014-Nov-17 00:33N 43°20' E 005°21'0 0.0
2014-Nov-16 23:33N 43°20' E 005°21'0 0.0
2014-Nov-16 22:33N 43°20' E 005°21'0 0.0
2014-Nov-16 21:27N 43°20' E 005°21'0 0.0
2014-Nov-16 20:33N 43°20' E 005°21'0 0.0
2014-Nov-16 19:33N 43°20' E 005°21'0 0.0
2014-Nov-16 18:33N 43°20' E 005°21'0 0.0
2014-Nov-16 17:33N 43°20' E 005°21'0 0.0
2014-Nov-16 16:33N 43°20' E 005°21'0 0.0
2014-Nov-16 15:33N 43°20' E 005°21'0 0.0
2014-Nov-16 14:33N 43°20' E 005°21'0 0.0
2014-Nov-16 13:33N 43°20' E 005°21'0 0.0
2014-Nov-16 12:33N 43°20' E 005°21'0 0.0
2014-Nov-16 11:33N 43°20' E 005°21'0 0.0
2014-Nov-16 10:33N 43°20' E 005°21'0 0.0
2014-Nov-16 09:33N 43°20' E 005°21'0 0.0
2014-Nov-16 08:33N 43°20' E 005°21'0 0.0
2014-Nov-16 07:33N 43°20' E 005°21'0 0.0
2014-Nov-16 06:27N 43°20' E 005°21'0 0.0
2014-Nov-16 05:33N 43°20' E 005°21'0 0.0
2014-Nov-16 04:27N 43°20' E 005°21'0 0.0
2014-Nov-16 03:33N 43°20' E 005°21'0 0.0
2014-Nov-16 02:33N 43°20' E 005°21'0 0.0
2014-Nov-16 01:33N 43°20' E 005°21'0 0.0
2014-Nov-16 00:33N 43°20' E 005°21'0 0.0
2014-Nov-15 23:33N 43°20' E 005°21'0 0.0
2014-Nov-15 22:33N 43°20' E 005°21'0 0.0
2014-Nov-15 21:33N 43°20' E 005°21'0 0.0
2014-Nov-15 20:33N 43°20' E 005°21'0 0.0
2014-Nov-15 19:33N 43°20' E 005°21'0 0.0
2014-Nov-15 18:33N 43°20' E 005°21'0 0.0
2014-Nov-15 17:33N 43°20' E 005°21'0 0.0
2014-Nov-15 16:33N 43°20' E 005°21'  
Track history (hours):
 
Tides and Currents Weather Stations Pressure Air Temp Water Temp Dewpoint Dewpoint Depression Visibility Wind Speed Wind Dir Waves Ship Positions

Juergen K

Last reported at 2014-Nov-25 16:32 UTC. Time now 2014-Nov-27 14:21 UTC.
Position N 39°50' E 008°14'.

Length 89 m; draft 5.6 m.

Type: Cargo ship. MMSI: 244329000.

Date/timePositionNaut miles runAvg speedWind from/ knotsBaromVisibWave heightAir tempDewpointWater temp
2014-Nov-25 16:32N 39°50' E 008°14'207 9.7
2014-Nov-24 19:07N 42°38' E 005°34'45 7.9
2014-Nov-24 13:29N 43°15' E 005°00'9 9.6
2014-Nov-24 12:33N 43°23' E 004°56'4 3.8
2014-Nov-24 11:30N 43°24' E 004°51'0 0.0
2014-Nov-24 10:30N 43°24' E 004°51'0 0.0
2014-Nov-24 09:24N 43°24' E 004°51'0 0.0
2014-Nov-24 08:33N 43°24' E 004°51'0 0.0
2014-Nov-24 07:30N 43°24' E 004°51'0 0.0
2014-Nov-24 06:33N 43°24' E 004°51'0 0.0
2014-Nov-24 05:33N 43°24' E 004°51'0 0.0
2014-Nov-24 04:33N 43°24' E 004°51'0 0.0
2014-Nov-24 03:33N 43°24' E 004°51'0 0.0
2014-Nov-24 02:33N 43°24' E 004°51'0 0.0
2014-Nov-24 01:30N 43°24' E 004°51'0 0.0
2014-Nov-24 00:33N 43°24' E 004°51'0 0.0
2014-Nov-23 23:30N 43°24' E 004°51'0 0.0
2014-Nov-23 22:33N 43°24' E 004°51'0 0.0
2014-Nov-23 21:33N 43°24' E 004°51'0 0.0
2014-Nov-23 20:30N 43°24' E 004°51'0 0.0
2014-Nov-23 19:30N 43°24' E 004°51'0 0.0
2014-Nov-23 18:33N 43°24' E 004°51'0 0.0
2014-Nov-23 17:33N 43°24' E 004°51'0 0.0
2014-Nov-23 16:33N 43°24' E 004°51'0 0.0
2014-Nov-23 15:33N 43°24' E 004°51'0 0.0
2014-Nov-23 14:33N 43°24' E 004°51'0 0.0
2014-Nov-23 13:33N 43°24' E 004°51'0 0.0
2014-Nov-23 12:33N 43°24' E 004°51'0 0.0
2014-Nov-23 11:33N 43°24' E 004°51'0 0.0
2014-Nov-23 10:33N 43°24' E 004°51'0 0.0
2014-Nov-23 09:33N 43°24' E 004°51'0 0.0
2014-Nov-23 08:33N 43°24' E 004°51'0 0.0
2014-Nov-23 07:33N 43°24' E 004°51'0 0.0
2014-Nov-23 06:30N 43°24' E 004°51'0 0.0
2014-Nov-23 05:33N 43°24' E 004°51'0 0.0
2014-Nov-23 04:33N 43°24' E 004°51'0 0.0
2014-Nov-23 03:33N 43°24' E 004°51'0 0.0
2014-Nov-23 02:33N 43°24' E 004°51'0 0.0
2014-Nov-23 01:33N 43°24' E 004°51'0 0.0
2014-Nov-23 00:33N 43°24' E 004°51'0 0.0
2014-Nov-22 23:30N 43°24' E 004°51'0 0.0
2014-Nov-22 22:33N 43°24' E 004°51'0 0.0
2014-Nov-22 21:30N 43°24' E 004°51'0 0.0
2014-Nov-22 20:27N 43°24' E 004°51'0 0.0
2014-Nov-22 19:27N 43°24' E 004°51'0 0.0
2014-Nov-22 18:33N 43°24' E 004°51'0 0.0
2014-Nov-22 17:24N 43°24' E 004°51'0 0.0
2014-Nov-22 16:33N 43°24' E 004°51'0 0.0
2014-Nov-22 15:33N 43°24' E 004°51'0 0.3
2014-Nov-22 14:33N 43°24' E 004°51'9 9.2
2014-Nov-22 13:34N 43°18' E 005°01'1110.7
2014-Nov-22 12:33N 43°19' E 005°16'4 3.5
2014-Nov-22 11:24N 43°20' E 005°21'0 0.0
2014-Nov-22 10:30N 43°20' E 005°21'0 0.0
2014-Nov-22 09:30N 43°20' E 005°21'0 0.0
2014-Nov-22 08:33N 43°20' E 005°21'0 0.0
2014-Nov-22 07:33N 43°20' E 005°21'0 0.0
2014-Nov-22 06:30N 43°20' E 005°21'0 0.0
2014-Nov-22 05:30N 43°20' E 005°21'0 0.0
2014-Nov-22 04:30N 43°20' E 005°21'0 0.0
2014-Nov-22 03:24N 43°20' E 005°21'0 0.0
2014-Nov-22 02:33N 43°20' E 005°21'0 0.0
2014-Nov-22 01:30N 43°20' E 005°21'0 0.0
2014-Nov-22 00:30N 43°20' E 005°21'0 0.0
2014-Nov-21 23:30N 43°20' E 005°21'0 0.0
2014-Nov-21 22:24N 43°20' E 005°21'0 0.0
2014-Nov-21 21:33N 43°20' E 005°21'0 0.0
2014-Nov-21 20:24N 43°20' E 005°21'0 0.0
2014-Nov-21 19:27N 43°20' E 005°21'0 0.0
2014-Nov-21 18:33N 43°20' E 005°21'0 0.0
2014-Nov-21 17:33N 43°20' E 005°21'0 0.0
2014-Nov-21 16:30N 43°20' E 005°21'0 0.0
2014-Nov-21 15:33N 43°20' E 005°21'0 0.0
2014-Nov-21 14:33N 43°20' E 005°21'0 0.0
2014-Nov-21 13:21N 43°20' E 005°21'0 0.0
2014-Nov-21 12:30N 43°20' E 005°21'0 0.0
2014-Nov-21 11:30N 43°20' E 005°21'0 0.0
2014-Nov-21 10:33N 43°20' E 005°21'0 0.0
2014-Nov-21 09:30N 43°20' E 005°21'0 0.0
2014-Nov-21 08:33N 43°20' E 005°21'0 0.0
2014-Nov-21 07:30N 43°20' E 005°21'0 0.0
2014-Nov-21 06:30N 43°20' E 005°21'0 0.0
2014-Nov-21 05:27N 43°20' E 005°21'0 0.0
2014-Nov-21 04:18N 43°20' E 005°21'0 0.0
2014-Nov-21 03:30N 43°20' E 005°21'0 0.0
2014-Nov-21 02:33N 43°20' E 005°21'0 0.0
2014-Nov-21 01:30N 43°20' E 005°21'0 0.0
2014-Nov-21 00:30N 43°20' E 005°21'0 0.0
2014-Nov-20 23:33N 43°20' E 005°21'0 0.0
2014-Nov-20 22:21N 43°20' E 005°21'0 0.0
2014-Nov-20 21:33N 43°20' E 005°21'0 0.0
2014-Nov-20 20:33N 43°20' E 005°21'0 0.0
2014-Nov-20 19:33N 43°20' E 005°21'0 0.0
2014-Nov-20 18:30N 43°20' E 005°21'0 0.0
2014-Nov-20 17:33N 43°20' E 005°21'0 0.0
2014-Nov-20 16:30N 43°20' E 005°21'0 0.0
2014-Nov-20 15:33N 43°20' E 005°21'0 0.0
2014-Nov-20 14:30N 43°20' E 005°21'0 0.0
2014-Nov-20 13:33N 43°20' E 005°21'0 0.0
2014-Nov-20 12:27N 43°20' E 005°21'0 0.0
2014-Nov-20 11:30N 43°20' E 005°21'0 0.0
2014-Nov-20 10:30N 43°20' E 005°21'0 0.0
2014-Nov-20 09:33N 43°20' E 005°21'0 0.0
2014-Nov-20 08:27N 43°20' E 005°21'0 0.0
2014-Nov-20 07:30N 43°20' E 005°21'0 0.0
2014-Nov-20 06:27N 43°20' E 005°21'0 0.0
2014-Nov-20 05:33N 43°20' E 005°21'0 0.0
2014-Nov-20 04:27N 43°20' E 005°21'0 0.0
2014-Nov-20 03:30N 43°20' E 005°21'0 0.0
2014-Nov-20 02:27N 43°20' E 005°21'0 0.0
2014-Nov-20 01:33N 43°20' E 005°21'3 2.8
2014-Nov-20 00:33N 43°20' E 005°17'9 8.8
2014-Nov-19 23:33N 43°13' E 005°10'9 9.4
2014-Nov-19 22:33N 43°09' E 004°59'11 9.5
2014-Nov-19 21:27N 43°07' E 004°45'22 9.5
2014-Nov-19 19:06N 43°04' E 004°14'1810.6
2014-Nov-19 17:24N 43°01' E 003°50'7 7.9
2014-Nov-19 16:31N 43°00' E 003°40'10 9.5
2014-Nov-19 15:26N 43°00' E 003°26'12 9.5
2014-Nov-19 14:08N 43°00' E 003°09'4 7.4
2014-Nov-19 13:33N 43°01' E 003°04'0 0.0
2014-Nov-18 21:10N 43°01' E 003°03'0 0.0
2014-Nov-18 18:15N 43°01' E 003°03'0 0.0
2014-Nov-18 17:24N 43°01' E 003°03'0 0.0
2014-Nov-18 16:30N 43°01' E 003°03'2 0.7
2014-Nov-18 13:30N 43°01' E 003°06'2 0.3
2014-Nov-18 07:13N 43°01' E 003°09'50 8.7
2014-Nov-18 01:24N 43°05' E 004°17'1210.3
2014-Nov-18 00:16N 43°06' E 004°33'18 9.7
2014-Nov-17 22:25N 43°08' E 004°58'8 9.7
2014-Nov-17 21:33N 43°11' E 005°08'10 9.6
2014-Nov-17 20:33N 43°19' E 005°15'4 4.4
2014-Nov-17 19:33N 43°20' E 005°21'0 0.0
2014-Nov-17 18:33N 43°20' E 005°21'0 0.0
2014-Nov-17 17:33N 43°20' E 005°21'0 0.0
2014-Nov-17 16:33N 43°20' E 005°21'0 0.0
2014-Nov-17 15:30N 43°20' E 005°21'0 0.0
2014-Nov-17 14:33N 43°20' E 005°21'0 0.0
2014-Nov-17 13:33N 43°20' E 005°21'0 0.0
2014-Nov-17 12:33N 43°20' E 005°21'0 0.0
2014-Nov-17 11:33N 43°20' E 005°21'0 0.0
2014-Nov-17 10:33N 43°20' E 005°21'0 0.0
2014-Nov-17 09:33N 43°20' E 005°21'0 0.0
2014-Nov-17 08:33N 43°20' E 005°21'0 0.0
2014-Nov-17 07:33N 43°20' E 005°21'0 0.0
2014-Nov-17 06:33N 43°20' E 005°21'0 0.0
2014-Nov-17 05:33N 43°20' E 005°21'0 0.0
2014-Nov-17 04:33N 43°20' E 005°21'0 0.0
2014-Nov-17 03:33N 43°20' E 005°21'0 0.0
2014-Nov-17 02:33N 43°20' E 005°21'0 0.0
2014-Nov-17 01:33N 43°20' E 005°21'0 0.0
2014-Nov-17 00:33N 43°20' E 005°21'0 0.0
2014-Nov-16 23:33N 43°20' E 005°21'0 0.0
2014-Nov-16 22:33N 43°20' E 005°21'0 0.0
2014-Nov-16 21:27N 43°20' E 005°21'0 0.0
2014-Nov-16 20:33N 43°20' E 005°21'0 0.0
2014-Nov-16 19:33N 43°20' E 005°21'0 0.0
2014-Nov-16 18:33N 43°20' E 005°21'0 0.0
2014-Nov-16 17:33N 43°20' E 005°21'0 0.0
2014-Nov-16 16:33N 43°20' E 005°21'0 0.0
2014-Nov-16 15:33N 43°20' E 005°21'0 0.0
2014-Nov-16 14:33N 43°20' E 005°21'0 0.0
2014-Nov-16 13:33N 43°20' E 005°21'0 0.0
2014-Nov-16 12:33N 43°20' E 005°21'0 0.0
2014-Nov-16 11:33N 43°20' E 005°21'0 0.0
2014-Nov-16 10:33N 43°20' E 005°21'0 0.0
2014-Nov-16 09:33N 43°20' E 005°21'0 0.0
2014-Nov-16 08:33N 43°20' E 005°21'0 0.0
2014-Nov-16 07:33N 43°20' E 005°21'0 0.0
2014-Nov-16 06:27N 43°20' E 005°21'0 0.0
2014-Nov-16 05:33N 43°20' E 005°21'0 0.0
2014-Nov-16 04:27N 43°20' E 005°21'0 0.0
2014-Nov-16 03:33N 43°20' E 005°21'0 0.0
2014-Nov-16 02:33N 43°20' E 005°21'0 0.0
2014-Nov-16 01:33N 43°20' E 005°21'0 0.0
2014-Nov-16 00:33N 43°20' E 005°21'0 0.0
2014-Nov-15 23:33N 43°20' E 005°21'0 0.0
2014-Nov-15 22:33N 43°20' E 005°21'0 0.0
2014-Nov-15 21:33N 43°20' E 005°21'0 0.0
2014-Nov-15 20:33N 43°20' E 005°21'0 0.0
2014-Nov-15 19:33N 43°20' E 005°21'0 0.0
2014-Nov-15 18:33N 43°20' E 005°21'0 0.0
2014-Nov-15 17:33N 43°20' E 005°21'0 0.0
2014-Nov-15 16:33N 43°20' E 005°21'  

Dump ship's entire track history